Impacts TAF Board
For situational awareness. Not to be used for flight planning purposes.
IDs:

KPSC - Pasco/Tri Cities Arp, WA, US

Issued at 2332 UTC 05 Dec 2019
Updated at 0102 UTC 06 Dec 2019
Potential Impact None Slight Moderate High
Time0053Z 06/02Z 06/03Z 06/04Z 06/05Z 06/06Z 06/07Z 06/08Z 06/09Z 06/10Z 06/11Z 06/12Z 06/13Z 06/14Z>>
Type OBS PRVL PRVL PRVL PRVL PRVL PRVL PRVL PRVL PRVL PRVL PRVL PRVL PRVL
VIS 6 >6 >6 >6 6 6 6 6 6 6 6 5 5 5
CIG -- 250 250 250 15 15 15 15 15 15 15 6 6 6
Cover FEW BKN BKN BKN OVC OVC OVC OVC OVC OVC OVC OVC OVC OVC
FltCat VFR VFR VFR VFR MVFR MVFR MVFR MVFR MVFR MVFR MVFR IFR IFR IFR
WX HZ -- -- -- BR BR BR BR BR BR BR BR BR BR
WDir 120 VRB VRB VRB VRB VRB VRB VRB VRB VRB VRB VRB VRB VRB
WSpd 4 3 3 3 3 3 3 3 3 3 3 3 3 3
WGst -- -- -- -- -- -- -- -- -- -- -- -- -- --
Raw TAF
KPSC 052332Z 0600/0624 VRB04KT P6SM SCT100 BKN150
  FM060200 VRB03KT P6SM SCT015 BKN250
  FM060500 VRB03KT 6SM BR OVC015
  FM061200 VRB03KT 5SM BR OVC006
  FM061800 35003KT P6SM BKN200


Raw METAR
KPSC 060053Z 12004KT 6SM HZ FEW120 03/00 A3016 RMK AO2 SLP217 T00330000
KPSC 052353Z 00000KT 8SM CLR 06/01 A3017 RMK AO2 SLP220 T00560006 10061 20028 53007
KPSC 052253Z 00000KT 9SM CLR 06/01 A3016 RMK AO2 SLP217 T00610006

METAR Board
Radar Display
Forecast Discussion
For situational awareness. Not to be used for flight planning purposes.